Main page
METAR-TAF:

METAR-TAF

Airports :

Melilla Airport

Melilla, Spain

latitude: 35-17N, longitude: 002-57W, elevation: 47 m

Current weather observation

The report was made 23 minutes ago, at 22:00 UTC
Wind 20 kt from the West, varying between Southwest and West/Northwest
Temperature 15°C
Humidity 72%
Pressure 1023 hPa
Visibility 10 km or more
no clouds below 1500 m and no cumulonimbus

METAR: GEML 042200Z AUTO 26020KT 230V300 CAVOK 15/10 Q1023

Time: 23:23 (22:23 UTC)

Forecast

The report was made 5 hours and 23 minutes ago, at 17:00 UTC
Forecast valid from 04 at 18 UTC to 05 at 18 UTC
Wind 18 kt from the West
Visibility 10 km or more
Few clouds at a height of 2000 ft
Temporary
from 04 at 18 UTC to 05 at 18 UTC
Wind 20 kt from the West with gusts up to 30 kt
Probability 40% :
Temporary
from 05 at 11 UTC to 05 at 18 UTC
Wind 26 kt from the West with gusts up to 40 kt

TAF: GEML 041700Z 0418/0518 28018KT 9999 FEW020 TX18/0512Z TN14/0505Z TEMPO 0418/0518 28020G30KT PROB40 TEMPO 0511/0518 28026G40KT

Weather observations and forecasts of more than 4000 airports (METAR and TAF reports).

The available stations are represented by yellow and red dots on the map.

Hover mouse over dot to see the name of the station.

Then click to see weather observations and forecasts.

To change the map : click on the green buttons with a black cross to zoom in, on the green button with a dash to zoom out, or on the green arrows for adjacent maps.


METAR-TAF: